Time;durP1;ratioP1;P1;durP2;ratioP2;P2;SDS_P1;SDS_P2;PMS_P1;PMS_P2;Temp;Humidity;BMP_temperature;BMP_pressure;BME280_temperature;BME280_humidity;BME280_pressure;Samples;Min_cycle;Max_cycle;Signal;HPM_P1;HPM_P2
2021/08/11 07:30:47;;;;;;;27.63;17.30;;;17.50;99.90;;;;;;5090759;28;20567;-68
2021/08/11 07:33:13;;;;;;;29.90;18.60;;;17.30;99.90;;;;;;5090818;28;20159;-69
2021/08/11 07:35:39;;;;;;;24.15;16.42;;;17.30;99.90;;;;;;5089601;28;20176;-69
2021/08/11 07:38:05;;;;;;;24.10;16.40;;;17.30;99.90;;;;;;5090844;28;20175;-69
2021/08/11 07:40:31;;;;;;;28.17;17.67;;;17.30;99.90;;;;;;5090737;28;20179;-69
2021/08/11 07:42:58;;;;;;;25.55;16.60;;;17.20;99.90;;;;;;5090751;28;20159;-69
2021/08/11 07:45:25;;;;;;;28.77;15.98;;;17.20;99.90;;;;;;5089412;28;20259;-69
2021/08/11 07:47:54;;;;;;;22.70;15.23;;;17.30;99.90;;;;;;5090629;28;20640;-69
2021/08/11 07:50:21;;;;;;;21.98;14.07;;;17.30;99.90;;;;;;5090564;28;20297;-69
2021/08/11 07:52:47;;;;;;;17.83;13.27;;;17.40;99.90;;;;;;5090575;28;20206;-69
2021/08/11 07:55:13;;;;;;;16.60;12.35;;;17.40;99.90;;;;;;5090556;28;20171;-69
2021/08/11 07:57:39;;;;;;;17.10;12.13;;;17.40;99.90;;;;;;5090476;28;20164;-69
2021/08/11 08:00:10;;;;;;;18.48;12.38;;;17.50;99.90;;;;;;5090442;28;20654;-69
2021/08/11 08:02:35;;;;;;;13.02;11.63;;;17.60;99.90;;;;;;5090299;28;20655;-69
2021/08/11 08:05:02;;;;;;;12.60;10.38;;;17.70;99.90;;;;;;5090327;28;20175;-69
2021/08/11 08:07:28;;;;;;;14.48;9.57;;;17.70;99.90;;;;;;5090339;28;20301;-69
2021/08/11 08:09:54;;;;;;;13.02;9.73;;;17.70;99.90;;;;;;5090159;28;20206;-69
2021/08/11 08:12:19;;;;;;;9.45;8.65;;;17.80;99.90;;;;;;5090207;28;20164;-69
2021/08/11 08:14:45;;;;;;;8.77;7.88;;;17.90;99.90;;;;;;5090161;28;20234;-69
2021/08/11 08:17:11;;;;;;;10.68;9.20;;;18.00;99.90;;;;;;5090046;28;20552;-69
2021/08/11 08:19:36;;;;;;;10.43;9.38;;;17.90;99.90;;;;;;5090031;28;20171;-69
2021/08/11 08:22:02;;;;;;;10.55;7.97;;;17.90;99.90;;;;;;5089890;28;20176;-69
2021/08/11 08:24:31;;;;;;;11.57;9.35;;;17.80;99.90;;;;;;5089967;28;20178;-69
2021/08/11 08:26:57;;;;;;;10.35;8.93;;;17.80;99.90;;;;;;5089958;28;20171;-69
2021/08/11 08:29:23;;;;;;;9.82;8.82;;;17.80;99.90;;;;;;5089614;28;20292;-69
2021/08/11 08:31:48;;;;;;;13.48;9.50;;;17.80;99.90;;;;;;5088580;28;20202;-69
2021/08/11 08:34:14;;;;;;;11.48;8.70;;;17.80;99.90;;;;;;5089761;28;20313;-69
2021/08/11 08:36:39;;;;;;;14.45;10.38;;;17.90;99.90;;;;;;5089708;28;20160;-69
2021/08/11 08:39:05;;;;;;;10.07;9.07;;;18.00;99.90;;;;;;5089556;28;20191;-69
2021/08/11 08:41:31;;;;;;;11.55;10.35;;;18.10;99.90;;;;;;5079719;28;20164;-69
2021/08/11 08:43:57;;;;;;;9.95;8.77;;;18.20;99.90;;;;;;5076110;28;20175;-69
2021/08/11 08:46:23;;;;;;;11.43;10.30;;;18.30;99.90;;;;;;5075867;28;20172;-69
2021/08/11 08:48:49;;;;;;;9.40;8.40;;;18.30;99.90;;;;;;5075855;28;20208;-69
2021/08/11 08:51:15;;;;;;;10.43;9.15;;;18.20;99.90;;;;;;5074686;28;20648;-69
2021/08/11 08:53:43;;;;;;;11.77;10.13;;;18.20;99.90;;;;;;5075948;28;20192;-69
2021/08/11 08:56:09;;;;;;;12.00;10.27;;;18.20;99.90;;;;;;5075883;28;20352;-69
2021/08/11 08:58:37;;;;;;;12.07;10.13;;;18.30;99.90;;;;;;5075599;28;20233;-69
2021/08/11 09:01:02;;;;;;;12.23;9.30;;;18.20;99.90;;;;;;5074276;28;20172;-69
2021/08/11 09:03:28;;;;;;;11.35;8.65;;;18.30;99.90;;;;;;5075422;28;20170;-69
2021/08/11 09:05:54;;;;;;;14.13;10.63;;;18.30;99.90;;;;;;5075213;28;20168;-69
2021/08/11 09:08:19;;;;;;;13.77;10.15;;;18.40;99.90;;;;;;5074855;28;20644;-69
2021/08/11 09:10:45;;;;;;;15.07;11.43;;;18.30;99.90;;;;;;5075588;28;20195;-69
2021/08/11 09:13:21;;;;;;;14.57;11.05;;;18.30;99.90;;;;;;5074789;28;20356;-69
2021/08/11 09:16:03;;;;;;;14.73;11.25;;;18.40;99.90;;;;;;5075278;28;20160;-69
2021/08/11 09:18:28;;;;;;;14.68;11.48;;;18.40;99.90;;;;;;5075208;28;20180;-69
2021/08/11 09:21:02;;;;;;;16.02;11.82;;;18.50;99.90;;;;;;5075118;28;20644;-69
2021/08/11 09:23:39;;;;;;;17.17;11.68;;;18.50;99.90;;;;;;5075035;28;20163;-69
2021/08/11 09:26:07;;;;;;;13.65;11.57;;;18.60;99.90;;;;;;5073905;28;20171;-69
2021/08/11 09:28:35;;;;;;;14.35;11.70;;;18.70;99.90;;;;;;5074583;28;20156;-70
2021/08/11 09:31:22;;;;;;;12.85;9.98;;;18.80;99.90;;;;;;5074537;28;20164;-69
2021/08/11 09:33:54;;;;;;;9.27;8.38;;;18.90;99.90;;;;;;5075113;28;20184;-69
2021/08/11 09:36:19;;;;;;;8.68;7.88;;;19.00;99.90;;;;;;5075101;28;20243;-70
2021/08/11 09:39:00;;;;;;;9.77;8.25;;;19.10;99.90;;;;;;5075051;28;20195;-69
2021/08/11 09:41:26;;;;;;;13.25;8.52;;;19.20;99.90;;;;;;5075007;28;20171;-69
2021/08/11 09:44:04;;;;;;;9.25;8.23;;;19.40;99.90;;;;;;5075047;28;20168;-69
2021/08/11 09:46:31;;;;;;;8.80;7.90;;;19.60;99.90;;;;;;5074539;28;20633;-68
2021/08/11 09:48:57;;;;;;;9.48;7.03;;;19.60;99.90;;;;;;5074813;28;20195;-69
2021/08/11 09:51:22;;;;;;;8.07;7.38;;;19.60;99.90;;;;;;5074780;28;20175;-69
2021/08/11 09:53:48;;;;;;;7.43;6.70;;;19.60;99.90;;;;;;5073770;28;20172;-69
2021/08/11 09:56:14;;;;;;;12.75;7.60;;;19.70;99.90;;;;;;5074689;28;20676;-69
2021/08/11 09:59:02;;;;;;;9.05;7.25;;;19.80;99.90;;;;;;5074708;28;20167;-69
2021/08/11 10:01:28;;;;;;;7.82;6.70;;;19.90;99.90;;;;;;5074575;28;20513;-69
2021/08/11 10:04:05;;;;;;;7.75;7.15;;;20.00;99.90;;;;;;5074588;28;20168;-70
2021/08/11 10:06:39;;;;;;;7.22;6.50;;;20.00;99.90;;;;;;5074505;28;20163;-70
2021/08/11 10:09:25;;;;;;;6.40;6.00;;;20.00;99.90;;;;;;5073209;28;20187;-70
2021/08/11 10:11:59;;;;;;;6.72;6.13;;;19.90;99.90;;;;;;5074299;28;20159;-70
2021/08/11 10:14:28;;;;;;;7.18;6.57;;;20.00;99.90;;;;;;5074372;28;20216;-70
2021/08/11 10:16:56;;;;;;;7.30;6.70;;;19.90;99.90;;;;;;5074213;28;20184;-70
2021/08/11 10:19:27;;;;;;;7.95;7.15;;;19.90;99.90;;;;;;5072999;28;20172;-70
2021/08/11 10:21:58;;;;;;;6.95;6.35;;;19.90;99.90;;;;;;5074115;28;20168;-70
2021/08/11 10:24:25;;;;;;;7.22;6.50;;;19.90;99.90;;;;;;5074192;28;20175;-70
2021/08/11 10:26:51;;;;;;;7.75;7.15;;;20.00;99.90;;;;;;5074139;28;20175;-70
2021/08/11 10:29:18;;;;;;;8.43;7.72;;;20.10;99.90;;;;;;5073719;28;20212;-70
2021/08/11 10:31:44;;;;;;;8.63;7.88;;;20.20;99.90;;;;;;5073779;28;20186;-70
2021/08/11 10:34:14;;;;;;;8.65;7.63;;;20.20;99.90;;;;;;5073996;28;20179;-70
2021/08/11 10:36:42;;;;;;;7.22;6.35;;;20.30;99.90;;;;;;5072657;28;20175;-70
2021/08/11 10:39:09;;;;;;;7.13;6.60;;;20.30;99.90;;;;;;5073891;28;20183;-70
2021/08/11 10:41:35;;;;;;;6.45;5.95;;;20.40;99.90;;;;;;5073881;28;20222;-70
2021/08/11 10:44:03;;;;;;;6.78;6.28;;;20.50;99.90;;;;;;5073941;28;20168;-70
2021/08/11 10:46:41;;;;;;;6.75;6.25;;;20.80;99.90;;;;;;5073725;28;20258;-67
2021/08/11 10:49:10;;;;;;;6.30;5.72;;;21.00;99.90;;;;;;5073676;28;20201;-68
2021/08/11 10:51:49;;;;;;;6.90;6.25;;;21.10;99.90;;;;;;5073680;28;20192;-68
2021/08/11 10:54:15;;;;;;;5.95;5.55;;;21.10;99.90;;;;;;5073726;28;20698;-68
2021/08/11 10:56:50;;;;;;;5.90;5.50;;;21.10;99.90;;;;;;5073481;28;20229;-68
2021/08/11 10:59:21;;;;;;;6.00;5.40;;;21.20;99.90;;;;;;5073621;28;20167;-68
2021/08/11 11:01:47;;;;;;;5.80;5.35;;;21.30;99.90;;;;;;5073482;28;20164;-68
2021/08/11 11:04:40;;;;;;;5.25;4.95;;;21.30;99.90;;;;;;5073098;28;20174;-67
2021/08/11 11:07:16;;;;;;;5.18;4.85;;;21.30;99.90;;;;;;5073501;28;20241;-68
2021/08/11 11:09:44;;;;;;;5.50;5.20;;;21.30;99.90;;;;;;5073282;28;20187;-68
2021/08/11 11:12:21;;;;;;;5.72;5.32;;;21.40;99.90;;;;;;5073453;28;20247;-68
2021/08/11 11:15:07;;;;;;;4.35;4.15;;;21.50;99.90;;;;;;5073401;28;20174;-67
2021/08/11 11:17:35;;;;;;;4.97;4.68;;;21.60;99.90;;;;;;5073346;28;20188;-68
2021/08/11 11:20:03;;;;;;;5.30;4.90;;;21.60;99.90;;;;;;5073329;28;20565;-68
2021/08/11 11:22:51;;;;;;;4.97;4.68;;;21.40;99.90;;;;;;5073375;28;20637;-68
2021/08/11 11:25:18;;;;;;;6.68;5.00;;;21.50;99.90;;;;;;5073323;28;20251;-68
2021/08/11 11:27:44;;;;;;;5.18;4.88;;;21.30;99.90;;;;;;5073323;28;20292;-68
2021/08/11 11:30:14;;;;;;;5.35;5.00;;;21.20;99.90;;;;;;5071882;28;20707;-68
2021/08/11 11:32:41;;;;;;;5.28;4.57;;;21.10;99.90;;;;;;5073211;28;20175;-68
2021/08/11 11:35:23;;;;;;;5.22;4.85;;;21.00;99.90;;;;;;5073224;28;20164;-68
2021/08/11 11:38:12;;;;;;;4.85;4.47;;;21.00;99.90;;;;;;5071908;28;20207;-68
2021/08/11 11:40:56;;;;;;;4.80;4.47;;;21.00;99.90;;;;;;5073129;28;20268;-68
2021/08/11 11:43:23;;;;;;;5.03;4.70;;;20.90;99.90;;;;;;5073013;28;20624;-67
2021/08/11 11:45:49;;;;;;;5.07;4.78;;;20.90;99.90;;;;;;5073471;28;20700;-68
2021/08/11 11:48:15;;;;;;;6.75;5.07;;;20.80;99.90;;;;;;5073196;28;20203;-68
2021/08/11 11:50:45;;;;;;;4.70;4.18;;;20.80;99.90;;;;;;5073064;28;20168;-68
2021/08/11 11:53:37;;;;;;;5.65;5.15;;;20.80;99.90;;;;;;5071846;28;20628;-68
2021/08/11 11:56:14;;;;;;;5.75;5.35;;;20.80;99.90;;;;;;5072778;28;20192;-68
2021/08/11 11:58:48;;;;;;;5.15;4.85;;;20.80;99.90;;;;;;5073033;28;20175;-68
2021/08/11 12:01:15;;;;;;;5.25;4.85;;;21.00;99.90;;;;;;5071753;28;20206;-68
2021/08/11 12:03:47;;;;;;;5.80;4.85;;;21.20;99.90;;;;;;5073062;28;20242;-67
2021/08/11 12:06:13;;;;;;;4.53;4.15;;;21.40;99.90;;;;;;5071676;28;20176;-68
2021/08/11 12:08:38;;;;;;;4.70;4.40;;;21.60;99.90;;;;;;5073060;28;20197;-68
2021/08/11 12:11:09;;;;;;;4.35;3.95;;;21.70;99.90;;;;;;5071773;28;20176;-68
2021/08/11 12:13:47;;;;;;;4.50;4.10;;;21.70;99.90;;;;;;5071879;28;20523;-68
2021/08/11 12:16:16;;;;;;;6.82;4.90;;;21.70;99.90;;;;;;5074430;28;20168;-68
2021/08/11 12:18:45;;;;;;;4.72;4.43;;;21.70;99.90;;;;;;5076371;28;20180;-68
2021/08/11 12:21:12;;;;;;;4.50;4.15;;;21.50;99.90;;;;;;5076446;28;20156;-68
2021/08/11 12:23:38;;;;;;;4.22;4.03;;;21.50;99.90;;;;;;5076554;28;20645;-68
2021/08/11 12:26:07;;;;;;;4.70;4.22;;;21.70;99.90;;;;;;5076514;28;20245;-68
2021/08/11 12:28:40;;;;;;;4.10;3.90;;;21.80;99.90;;;;;;5076295;28;20175;-68
2021/08/11 12:31:06;;;;;;;4.85;4.25;;;21.70;99.90;;;;;;5075079;28;20171;-68
2021/08/11 12:33:36;;;;;;;3.92;3.70;;;21.80;99.90;;;;;;5076342;28;20613;-68
2021/08/11 12:36:17;;;;;;;4.25;3.95;;;21.70;99.90;;;;;;5076158;28;20190;-68
2021/08/11 12:38:55;;;;;;;4.18;3.88;;;21.70;99.90;;;;;;5076149;28;20168;-68
2021/08/11 12:41:23;;;;;;;4.55;4.15;;;21.60;99.90;;;;;;5076119;28;20626;-68
2021/08/11 12:43:55;;;;;;;5.13;4.50;;;21.60;99.90;;;;;;5076180;28;20520;-68
2021/08/11 12:46:40;;;;;;;4.30;4.07;;;21.50;99.90;;;;;;5076090;28;20514;-68
2021/08/11 12:49:23;;;;;;;4.63;4.32;;;21.40;99.90;;;;;;5076032;28;20171;-68
2021/08/11 12:52:11;;;;;;;4.60;4.20;;;21.30;99.90;;;;;;5074700;28;20188;-68
2021/08/11 12:55:01;;;;;;;4.47;4.28;;;21.40;99.90;;;;;;5074730;28;20182;-68
2021/08/11 12:57:39;;;;;;;5.00;4.60;;;21.60;99.90;;;;;;5075868;28;20531;-68
2021/08/11 13:00:10;;;;;;;4.32;4.03;;;21.90;99.90;;;;;;5075751;28;20188;-68
2021/08/11 13:02:36;;;;;;;4.03;3.72;;;22.30;99.90;;;;;;5075517;28;20176;-68
2021/08/11 13:05:12;;;;;;;4.18;3.88;;;22.50;99.90;;;;;;5075773;28;20636;-68
2021/08/11 13:08:00;;;;;;;4.60;4.28;;;22.60;99.90;;;;;;5075735;28;20633;-68
2021/08/11 13:10:28;;;;;;;4.43;4.13;;;22.90;99.90;;;;;;5074408;28;20217;-68
2021/08/11 13:12:54;;;;;;;4.55;4.22;;;23.00;99.90;;;;;;5075589;28;20167;-68
2021/08/11 13:15:21;;;;;;;4.90;4.05;;;23.20;99.90;;;;;;5075582;28;20175;-68
2021/08/11 13:17:52;;;;;;;4.30;4.00;;;23.20;99.90;;;;;;5075379;28;20233;-68
2021/08/11 13:20:20;;;;;;;4.78;4.38;;;23.20;99.90;;;;;;5075446;28;20221;-68
2021/08/11 13:22:53;;;;;;;3.95;3.72;;;22.90;99.90;;;;;;5075423;28;20180;-67
2021/08/11 13:25:19;;;;;;;4.75;3.90;;;22.60;99.90;;;;;;5075402;28;20186;-68
2021/08/11 13:27:50;;;;;;;4.95;4.65;;;22.30;99.90;;;;;;5075300;28;20299;-68
2021/08/11 13:30:17;;;;;;;4.63;4.22;;;22.20;99.90;;;;;;5075180;28;20222;-68
2021/08/11 13:32:43;;;;;;;4.72;4.32;;;22.20;99.90;;;;;;5075299;28;20514;-68
2021/08/11 13:35:10;;;;;;;3.88;3.67;;;22.40;99.90;;;;;;5075231;28;20172;-68
2021/08/11 13:37:36;;;;;;;4.10;3.90;;;22.60;99.90;;;;;;5075078;28;20246;-68
2021/08/11 13:40:04;;;;;;;4.30;4.00;;;22.90;99.90;;;;;;5075003;28;20191;-69
2021/08/11 13:42:29;;;;;;;4.07;3.63;;;23.30;99.90;;;;;;5074995;28;20178;-69
2021/08/11 13:44:55;;;;;;;5.25;4.75;;;23.60;99.90;;;;;;5073987;28;20528;-68
2021/08/11 13:47:23;;;;;;;5.45;4.40;;;23.80;99.90;;;;;;5074915;28;20164;-68
2021/08/11 13:49:51;;;;;;;4.82;4.43;;;23.90;99.90;;;;;;5074855;28;20198;-68
2021/08/11 13:52:17;;;;;;;5.32;4.18;;;23.90;99.90;;;;;;5074837;28;20167;-69
2021/08/11 13:54:42;;;;;;;5.00;4.55;;;23.60;99.90;;;;;;5074937;28;20167;-68
2021/08/11 13:57:08;;;;;;;4.63;4.18;;;23.30;99.90;;;;;;5074685;28;20213;-68
2021/08/11 13:59:33;;;;;;;4.60;4.30;;;23.00;99.90;;;;;;5074527;28;20192;-68
2021/08/11 14:01:59;;;;;;;4.40;4.00;;;22.80;99.90;;;;;;5074628;28;20255;-69
2021/08/11 14:04:25;;;;;;;4.78;4.47;;;22.80;99.90;;;;;;5073140;28;20199;-68
2021/08/11 14:06:50;;;;;;;5.38;4.57;;;22.80;99.90;;;;;;5074450;28;20247;-68
2021/08/11 14:09:16;;;;;;;4.70;4.40;;;22.80;99.90;;;;;;5074451;28;20164;-68
2021/08/11 14:11:42;;;;;;;4.15;3.85;;;22.80;99.90;;;;;;5074398;28;20171;-68
2021/08/11 14:14:07;;;;;;;4.40;4.00;;;22.90;99.90;;;;;;5074354;28;20255;-69
2021/08/11 14:16:33;;;;;;;4.07;3.70;;;23.10;99.90;;;;;;5074243;28;20282;-68
2021/08/11 14:18:59;;;;;;;4.10;3.80;;;23.30;99.90;;;;;;5074164;28;20672;-68
2021/08/11 14:21:28;;;;;;;4.07;3.83;;;23.30;99.90;;;;;;5072705;28;20171;-68
2021/08/11 14:23:54;;;;;;;4.22;3.90;;;23.20;99.90;;;;;;5074179;28;20172;-68
2021/08/11 14:26:19;;;;;;;4.10;3.80;;;23.00;99.90;;;;;;5074150;28;20171;-68
2021/08/11 14:28:45;;;;;;;4.18;3.83;;;23.20;99.90;;;;;;5072673;28;20224;-68
2021/08/11 14:31:10;;;;;;;4.35;3.95;;;23.30;99.90;;;;;;5074024;28;20624;-68
2021/08/11 14:33:36;;;;;;;4.03;3.72;;;23.50;99.90;;;;;;5073912;28;20518;-68
2021/08/11 14:36:03;;;;;;;3.88;3.55;;;23.70;99.90;;;;;;5073838;28;20225;-68
2021/08/11 14:38:29;;;;;;;4.38;4.07;;;23.80;99.90;;;;;;5073408;28;20174;-68
2021/08/11 14:40:54;;;;;;;3.83;3.40;;;23.90;99.90;;;;;;5073749;28;20553;-68
2021/08/11 14:43:20;;;;;;;4.63;4.30;;;24.00;99.90;;;;;;5073823;28;20568;-68
2021/08/11 14:45:46;;;;;;;6.82;4.28;;;24.30;99.90;;;;;;5073915;28;20251;-68
2021/08/11 14:48:11;;;;;;;3.95;3.65;;;24.40;99.90;;;;;;5073733;28;20516;-68
2021/08/11 14:50:37;;;;;;;3.50;3.30;;;24.50;99.90;;;;;;5073646;28;20175;-68
2021/08/11 14:53:04;;;;;;;3.88;3.58;;;24.40;99.90;;;;;;5073637;28;20168;-68
2021/08/11 14:55:29;;;;;;;3.60;3.30;;;24.30;99.90;;;;;;5072281;28;20175;-68
2021/08/11 14:57:55;;;;;;;3.88;3.67;;;24.30;99.90;;;;;;5073615;28;20220;-68
2021/08/11 15:00:20;;;;;;;3.75;3.55;;;24.50;99.90;;;;;;5073463;28;20280;-68
2021/08/11 15:02:46;;;;;;;4.10;3.90;;;24.60;99.90;;;;;;5073585;28;20168;-68
2021/08/11 15:05:12;;;;;;;3.33;3.13;;;24.90;99.90;;;;;;5073533;28;20168;-68
2021/08/11 15:07:37;;;;;;;4.60;4.30;;;25.00;99.90;;;;;;5073956;28;20517;-68
2021/08/11 15:10:04;;;;;;;3.67;3.47;;;25.00;99.90;;;;;;5073512;28;20229;-68
2021/08/11 15:12:29;;;;;;;3.78;3.55;;;25.00;99.90;;;;;;5073519;28;20171;-68
2021/08/11 15:14:55;;;;;;;3.25;3.05;;;24.80;99.90;;;;;;5073415;28;20176;-68
2021/08/11 15:17:20;;;;;;;3.63;3.33;;;24.70;99.90;;;;;;5073302;28;20195;-68
2021/08/11 15:19:46;;;;;;;4.18;3.88;;;24.70;99.90;;;;;;5073234;28;20199;-68
2021/08/11 15:22:12;;;;;;;3.88;3.55;;;24.80;99.90;;;;;;5073385;28;20168;-68
2021/08/11 15:24:37;;;;;;;4.13;3.83;;;24.90;99.90;;;;;;5073277;28;20178;-68
2021/08/11 15:27:04;;;;;;;3.83;3.40;;;25.00;99.90;;;;;;5073369;28;20192;-68
2021/08/11 15:29:30;;;;;;;4.25;3.92;;;24.90;99.90;;;;;;5073062;28;20684;-68
2021/08/11 15:31:56;;;;;;;4.70;3.67;;;24.80;99.90;;;;;;5073291;28;20179;-68
2021/08/11 15:34:22;;;;;;;4.63;4.07;;;24.70;99.90;;;;;;5073248;28;20497;-68
2021/08/11 15:36:47;;;;;;;4.13;3.83;;;24.50;99.90;;;;;;5073320;28;20170;-68
2021/08/11 15:39:13;;;;;;;5.75;4.55;;;24.20;99.90;;;;;;5073202;28;20193;-68
2021/08/11 15:41:39;;;;;;;4.82;3.67;;;24.00;99.90;;;;;;5073260;28;20172;-68
2021/08/11 15:44:06;;;;;;;5.78;3.85;;;24.00;99.90;;;;;;5073238;28;20171;-68
2021/08/11 15:46:35;;;;;;;4.72;4.15;;;24.00;99.90;;;;;;5073256;28;20168;-68
2021/08/11 15:49:00;;;;;;;4.72;3.85;;;24.00;99.90;;;;;;5073089;28;20168;-68
2021/08/11 15:51:26;;;;;;;4.25;3.83;;;24.00;99.90;;;;;;5075110;28;20229;-68
2021/08/11 15:53:52;;;;;;;4.18;3.88;;;24.00;99.90;;;;;;5075907;28;20184;-68
2021/08/11 15:56:17;;;;;;;4.20;3.85;;;24.00;99.90;;;;;;5077106;28;20172;-68
2021/08/11 15:58:43;;;;;;;4.65;3.53;;;23.90;99.90;;;;;;5076938;28;20590;-68
2021/08/11 16:01:08;;;;;;;6.03;3.92;;;23.70;99.90;;;;;;5076962;28;20168;-68
2021/08/11 16:03:34;;;;;;;3.60;3.40;;;23.80;99.90;;;;;;5076869;28;20179;-68
2021/08/11 16:05:59;;;;;;;4.45;4.15;;;23.90;99.90;;;;;;5076842;28;20218;-68
2021/08/11 16:08:25;;;;;;;4.10;3.80;;;24.10;99.90;;;;;;5075461;28;20191;-68
2021/08/11 16:10:51;;;;;;;6.50;4.15;;;24.20;99.90;;;;;;5076765;28;20203;-68
2021/08/11 16:13:16;;;;;;;4.38;3.38;;;24.30;99.90;;;;;;5076731;28;20251;-68
2021/08/11 16:15:42;;;;;;;6.03;3.60;;;24.30;99.90;;;;;;5076723;28;20163;-68
2021/08/11 16:18:08;;;;;;;3.95;3.67;;;24.30;99.90;;;;;;5076570;28;20195;-68
2021/08/11 16:20:34;;;;;;;13.18;4.07;;;24.30;99.90;;;;;;5076481;28;20195;-68
2021/08/11 16:22:59;;;;;;;3.78;3.47;;;24.00;99.90;;;;;;5076591;28;20679;-68
2021/08/11 16:25:26;;;;;;;4.55;4.15;;;23.80;99.90;;;;;;5076408;28;20246;-68
2021/08/11 16:27:52;;;;;;;3.63;3.33;;;23.70;99.90;;;;;;5076477;28;20167;-68
2021/08/11 16:30:20;;;;;;;7.75;3.97;;;23.70;99.90;;;;;;5076245;28;20219;-68
2021/08/11 16:32:46;;;;;;;3.55;3.35;;;23.60;99.90;;;;;;5076480;28;20519;-67
2021/08/11 16:35:14;;;;;;;3.80;3.60;;;23.60;99.90;;;;;;5076290;28;20168;-68
2021/08/11 16:37:41;;;;;;;4.15;3.85;;;23.40;99.90;;;;;;5076300;28;20655;-68
2021/08/11 16:40:11;;;;;;;3.97;3.67;;;23.30;99.90;;;;;;5076059;28;20273;-68
2021/08/11 16:42:37;;;;;;;3.92;3.50;;;23.20;99.90;;;;;;5074842;28;20167;-68
2021/08/11 16:45:03;;;;;;;4.13;3.83;;;23.20;99.90;;;;;;5076095;28;20717;-68
2021/08/11 16:47:29;;;;;;;4.97;3.65;;;23.20;99.90;;;;;;5075959;28;20690;-68
2021/08/11 16:49:54;;;;;;;3.83;3.63;;;23.10;99.90;;;;;;5075981;28;20327;-68
2021/08/11 16:52:20;;;;;;;4.20;3.88;;;23.00;99.90;;;;;;5076040;28;20172;-68
2021/08/11 16:54:45;;;;;;;4.38;4.05;;;23.00;99.90;;;;;;5075920;28;20583;-68
2021/08/11 16:57:11;;;;;;;5.35;3.95;;;23.00;99.90;;;;;;5075886;28;20168;-68
2021/08/11 16:59:38;;;;;;;4.35;3.95;;;23.00;99.90;;;;;;5075716;28;20192;-67
2021/08/11 17:02:06;;;;;;;4.03;3.78;;;23.10;99.90;;;;;;5075411;28;20198;-68
2021/08/11 17:04:33;;;;;;;4.65;4.35;;;23.00;99.90;;;;;;5074542;28;20176;-68
2021/08/11 17:06:58;;;;;;;3.60;3.40;;;22.90;99.90;;;;;;5075796;28;20164;-67
2021/08/11 17:09:24;;;;;;;4.32;4.00;;;22.80;99.90;;;;;;5075731;28;20528;-68
2021/08/11 17:11:50;;;;;;;3.35;3.15;;;22.70;99.90;;;;;;5076107;28;20180;-68
2021/08/11 17:14:15;;;;;;;5.00;3.55;;;22.70;99.90;;;;;;5075534;28;20172;-68
2021/08/11 17:16:41;;;;;;;5.97;3.55;;;22.60;99.90;;;;;;5075358;28;20192;-67
2021/08/11 17:19:07;;;;;;;3.95;3.47;;;22.60;99.90;;;;;;5075417;28;20191;-67
2021/08/11 17:21:32;;;;;;;3.55;3.35;;;22.50;99.90;;;;;;5075463;28;20621;-68
2021/08/11 17:23:58;;;;;;;3.65;3.45;;;22.60;99.90;;;;;;5075376;28;20164;-68
2021/08/11 17:26:23;;;;;;;3.67;3.45;;;22.50;99.90;;;;;;5074072;28;20174;-68
2021/08/11 17:28:49;;;;;;;3.83;3.53;;;22.50;99.90;;;;;;5075105;28;20224;-68
2021/08/11 17:31:15;;;;;;;3.80;3.58;;;22.50;99.90;;;;;;5075375;28;20251;-68
2021/08/11 17:33:40;;;;;;;3.85;3.45;;;22.50;99.90;;;;;;5074006;28;20508;-67
2021/08/11 17:36:07;;;;;;;3.53;3.33;;;22.60;99.90;;;;;;5075178;28;20164;-68
2021/08/11 17:38:33;;;;;;;4.20;3.80;;;22.80;99.90;;;;;;5075117;28;20176;-68
2021/08/11 17:40:58;;;;;;;3.72;3.33;;;22.90;99.90;;;;;;5074965;28;20445;-68
2021/08/11 17:43:24;;;;;;;3.90;3.60;;;23.00;99.90;;;;;;5074956;28;20171;-68
2021/08/11 17:45:50;;;;;;;3.90;3.55;;;23.10;99.90;;;;;;5074965;28;20160;-68
2021/08/11 17:48:22;;;;;;;4.03;3.72;;;23.10;99.90;;;;;;5074983;28;20168;-68
2021/08/11 17:50:48;;;;;;;3.95;3.72;;;23.20;99.90;;;;;;5075046;28;20199;-68
2021/08/11 17:53:13;;;;;;;4.25;3.80;;;23.20;99.90;;;;;;5074826;28;20168;-68
2021/08/11 17:55:39;;;;;;;3.92;3.70;;;23.20;99.90;;;;;;5074744;28;20187;-68
2021/08/11 17:58:04;;;;;;;3.90;3.70;;;23.10;99.90;;;;;;5073460;28;20699;-68
2021/08/11 18:00:30;;;;;;;4.45;3.88;;;23.10;99.90;;;;;;5074665;28;20528;-68
2021/08/11 18:02:55;;;;;;;4.88;3.40;;;23.10;99.90;;;;;;5074668;28;20652;-68
2021/08/11 18:05:21;;;;;;;5.45;3.60;;;23.10;99.90;;;;;;5074565;28;20164;-67
2021/08/11 18:07:47;;;;;;;3.75;3.55;;;23.00;99.90;;;;;;5073268;28;20194;-67
2021/08/11 18:10:12;;;;;;;4.22;3.92;;;23.00;99.90;;;;;;5074465;28;20168;-67
2021/08/11 18:12:38;;;;;;;4.65;4.25;;;23.00;99.90;;;;;;5074121;28;20176;-67
2021/08/11 18:15:05;;;;;;;4.15;3.85;;;22.90;99.90;;;;;;5073307;28;20175;-67
2021/08/11 18:17:30;;;;;;;4.05;3.75;;;22.80;99.90;;;;;;5074136;28;20221;-68
2021/08/11 18:19:56;;;;;;;5.05;4.28;;;22.80;99.90;;;;;;5074084;28;20278;-68
2021/08/11 18:22:23;;;;;;;4.35;3.95;;;22.70;99.90;;;;;;5074182;28;20167;-67
2021/08/11 18:24:49;;;;;;;4.80;3.83;;;22.60;99.90;;;;;;5074186;28;20301;-67
2021/08/11 18:27:17;;;;;;;5.00;4.45;;;22.50;99.90;;;;;;5074081;28;20637;-68
2021/08/11 18:29:49;;;;;;;4.57;4.28;;;22.40;99.90;;;;;;5073930;28;20227;-68
2021/08/11 18:32:14;;;;;;;4.32;4.03;;;22.20;99.90;;;;;;5074053;28;20180;-68
2021/08/11 18:34:40;;;;;;;4.93;3.95;;;22.10;99.90;;;;;;5073844;28;20184;-68
2021/08/11 18:37:09;;;;;;;4.43;4.07;;;22.00;99.90;;;;;;5073987;28;20270;-68
2021/08/11 18:39:35;;;;;;;4.65;4.25;;;21.90;99.90;;;;;;5073773;28;20526;-68
2021/08/11 18:42:01;;;;;;;4.32;3.92;;;21.70;99.90;;;;;;5073885;28;20172;-68
2021/08/11 18:44:27;;;;;;;4.15;3.75;;;21.70;99.90;;;;;;5073876;28;20246;-68
2021/08/11 18:46:55;;;;;;;4.53;4.22;;;21.50;99.90;;;;;;5073854;28;20170;-68
